sensor_id;sensor_type;location;lat;lon;timestamp;pressure;altitude;pressure_sealevel;temperature;humidity
79686;BME280;69153;47.918;11.428;2023-06-04T00:00:04;95092.09;;;15.90;53.46
79686;BME280;69153;47.918;11.428;2023-06-04T00:02:30;95088.69;;;15.90;53.81
79686;BME280;69153;47.918;11.428;2023-06-04T00:04:56;95092.69;;;15.85;53.90
79686;BME280;69153;47.918;11.428;2023-06-04T00:07:21;95096.00;;;15.80;53.88
79686;BME280;69153;47.918;11.428;2023-06-04T00:09:47;95094.81;;;15.81;53.38
79686;BME280;69153;47.918;11.428;2023-06-04T00:12:12;95087.53;;;15.82;53.80
79686;BME280;69153;47.918;11.428;2023-06-04T00:14:38;95091.72;;;15.73;54.15
79686;BME280;69153;47.918;11.428;2023-06-04T00:17:03;95082.22;;;15.72;54.08
79686;BME280;69153;47.918;11.428;2023-06-04T00:19:29;95081.38;;;15.66;54.25
79686;BME280;69153;47.918;11.428;2023-06-04T00:21:54;95085.06;;;15.69;54.11
79686;BME280;69153;47.918;11.428;2023-06-04T00:24:20;95091.00;;;15.64;54.53
79686;BME280;69153;47.918;11.428;2023-06-04T00:26:45;95090.72;;;15.62;54.69
79686;BME280;69153;47.918;11.428;2023-06-04T00:29:11;95084.53;;;15.56;54.48
79686;BME280;69153;47.918;11.428;2023-06-04T00:31:36;95084.06;;;15.57;54.42
79686;BME280;69153;47.918;11.428;2023-06-04T00:34:05;95084.19;;;15.54;54.58
79686;BME280;69153;47.918;11.428;2023-06-04T00:36:31;95076.19;;;15.54;54.64
79686;BME280;69153;47.918;11.428;2023-06-04T00:38:56;95079.00;;;15.50;54.23
79686;BME280;69153;47.918;11.428;2023-06-04T00:41:22;95076.94;;;15.45;54.72
79686;BME280;69153;47.918;11.428;2023-06-04T00:43:47;95084.25;;;15.45;54.33
79686;BME280;69153;47.918;11.428;2023-06-04T00:46:21;95082.91;;;15.40;54.30
79686;BME280;69153;47.918;11.428;2023-06-04T00:48:46;95074.47;;;15.32;54.43
79686;BME280;69153;47.918;11.428;2023-06-04T00:51:12;95089.91;;;15.28;54.39
79686;BME280;69153;47.918;11.428;2023-06-04T00:53:39;95089.03;;;15.31;54.38
79686;BME280;69153;47.918;11.428;2023-06-04T00:56:04;95081.91;;;15.28;54.51
79686;BME280;69153;47.918;11.428;2023-06-04T00:58:32;95081.47;;;15.21;54.48
79686;BME280;69153;47.918;11.428;2023-06-04T01:01:02;95083.41;;;15.20;54.35
79686;BME280;69153;47.918;11.428;2023-06-04T01:03:34;95083.56;;;15.17;54.35
79686;BME280;69153;47.918;11.428;2023-06-04T01:06:15;95081.66;;;15.08;54.76
79686;BME280;69153;47.918;11.428;2023-06-04T01:08:51;95089.94;;;15.10;54.68
79686;BME280;69153;47.918;11.428;2023-06-04T01:11:33;95087.44;;;15.07;54.49
79686;BME280;69153;47.918;11.428;2023-06-04T01:14:00;95088.47;;;15.00;54.59
79686;BME280;69153;47.918;11.428;2023-06-04T01:16:27;95081.53;;;15.02;54.54
79686;BME280;69153;47.918;11.428;2023-06-04T01:18:58;95085.81;;;15.00;54.81
79686;BME280;69153;47.918;11.428;2023-06-04T01:21:29;95086.25;;;14.98;54.71
79686;BME280;69153;47.918;11.428;2023-06-04T01:24:00;95087.44;;;14.97;54.68
79686;BME280;69153;47.918;11.428;2023-06-04T01:26:31;95090.25;;;14.94;54.72
79686;BME280;69153;47.918;11.428;2023-06-04T01:29:01;95087.31;;;14.92;54.60
79686;BME280;69153;47.918;11.428;2023-06-04T01:31:28;95094.13;;;14.93;54.66
79686;BME280;69153;47.918;11.428;2023-06-04T01:33:58;95084.78;;;14.88;54.71
79686;BME280;69153;47.918;11.428;2023-06-04T01:36:24;95088.06;;;14.83;54.39
79686;BME280;69153;47.918;11.428;2023-06-04T01:38:50;95090.72;;;14.74;55.11
79686;BME280;69153;47.918;11.428;2023-06-04T01:41:17;95095.03;;;14.72;54.79
79686;BME280;69153;47.918;11.428;2023-06-04T01:43:42;95095.91;;;14.69;54.48
79686;BME280;69153;47.918;11.428;2023-06-04T01:46:08;95094.28;;;14.62;54.49
79686;BME280;69153;47.918;11.428;2023-06-04T01:48:33;95093.25;;;14.59;54.12
79686;BME280;69153;47.918;11.428;2023-06-04T01:50:59;95091.91;;;14.55;54.43
79686;BME280;69153;47.918;11.428;2023-06-04T01:53:25;95089.09;;;14.49;54.47
79686;BME280;69153;47.918;11.428;2023-06-04T01:55:51;95090.13;;;14.43;54.67
79686;BME280;69153;47.918;11.428;2023-06-04T01:58:16;95084.47;;;14.31;54.69
79686;BME280;69153;47.918;11.428;2023-06-04T02:00:53;95092.63;;;14.28;55.49
79686;BME280;69153;47.918;11.428;2023-06-04T02:03:20;95093.50;;;14.25;55.23
79686;BME280;69153;47.918;11.428;2023-06-04T02:05:47;95097.03;;;14.22;55.38
79686;BME280;69153;47.918;11.428;2023-06-04T02:08:15;95108.56;;;14.19;55.77
79686;BME280;69153;47.918;11.428;2023-06-04T02:10:45;95104.28;;;14.21;55.72
79686;BME280;69153;47.918;11.428;2023-06-04T02:13:12;95107.25;;;14.23;55.91
79686;BME280;69153;47.918;11.428;2023-06-04T02:15:37;95113.47;;;14.20;55.95
79686;BME280;69153;47.918;11.428;2023-06-04T02:18:14;95108.88;;;14.21;55.85
79686;BME280;69153;47.918;11.428;2023-06-04T02:20:41;95107.09;;;14.18;55.78
79686;BME280;69153;47.918;11.428;2023-06-04T02:23:07;95110.19;;;14.16;56.09
79686;BME280;69153;47.918;11.428;2023-06-04T02:25:32;95106.66;;;14.19;55.76
79686;BME280;69153;47.918;11.428;2023-06-04T02:27:58;95107.69;;;14.22;55.29
79686;BME280;69153;47.918;11.428;2023-06-04T02:30:23;95109.00;;;14.17;55.66
79686;BME280;69153;47.918;11.428;2023-06-04T02:32:48;95109.91;;;14.14;55.65
79686;BME280;69153;47.918;11.428;2023-06-04T02:35:16;95114.94;;;14.12;55.67
79686;BME280;69153;47.918;11.428;2023-06-04T02:37:43;95105.91;;;14.10;55.25
79686;BME280;69153;47.918;11.428;2023-06-04T02:40:09;95106.78;;;14.07;55.14
79686;BME280;69153;47.918;11.428;2023-06-04T02:42:34;95108.06;;;14.02;55.09
79686;BME280;69153;47.918;11.428;2023-06-04T02:45:00;95108.66;;;13.97;54.71
79686;BME280;69153;47.918;11.428;2023-06-04T02:47:26;95120.31;;;13.90;54.70
79686;BME280;69153;47.918;11.428;2023-06-04T02:49:52;95102.72;;;13.93;54.73
79686;BME280;69153;47.918;11.428;2023-06-04T02:52:17;95105.81;;;13.82;55.50
79686;BME280;69153;47.918;11.428;2023-06-04T02:54:42;95107.41;;;13.71;55.85
79686;BME280;69153;47.918;11.428;2023-06-04T02:57:08;95117.00;;;13.68;55.90
79686;BME280;69153;47.918;11.428;2023-06-04T02:59:33;95111.66;;;13.68;55.77
79686;BME280;69153;47.918;11.428;2023-06-04T03:02:00;95115.06;;;13.69;55.68
79686;BME280;69153;47.918;11.428;2023-06-04T03:04:25;95124.13;;;13.71;55.47
79686;BME280;69153;47.918;11.428;2023-06-04T03:06:51;95118.91;;;13.68;55.59
79686;BME280;69153;47.918;11.428;2023-06-04T03:09:23;95122.00;;;13.66;55.36
79686;BME280;69153;47.918;11.428;2023-06-04T03:11:48;95121.28;;;13.66;55.64
79686;BME280;69153;47.918;11.428;2023-06-04T03:14:14;95120.84;;;13.67;55.59
79686;BME280;69153;47.918;11.428;2023-06-04T03:16:39;95128.94;;;13.64;56.28
79686;BME280;69153;47.918;11.428;2023-06-04T03:19:05;95126.56;;;13.56;56.20
79686;BME280;69153;47.918;11.428;2023-06-04T03:21:30;95128.91;;;13.54;56.20
79686;BME280;69153;47.918;11.428;2023-06-04T03:23:56;95130.28;;;13.59;56.01
79686;BME280;69153;47.918;11.428;2023-06-04T03:26:22;95129.53;;;13.58;55.62
79686;BME280;69153;47.918;11.428;2023-06-04T03:28:47;95133.06;;;13.55;56.51
79686;BME280;69153;47.918;11.428;2023-06-04T03:31:12;95141.78;;;13.56;56.36
79686;BME280;69153;47.918;11.428;2023-06-04T03:33:38;95141.59;;;13.50;56.17
79686;BME280;69153;47.918;11.428;2023-06-04T03:36:03;95136.47;;;13.56;55.54
79686;BME280;69153;47.918;11.428;2023-06-04T03:38:29;95139.84;;;13.47;55.29
79686;BME280;69153;47.918;11.428;2023-06-04T03:40:54;95144.22;;;13.41;55.29
79686;BME280;69153;47.918;11.428;2023-06-04T03:43:21;95151.16;;;13.39;54.97
79686;BME280;69153;47.918;11.428;2023-06-04T03:45:46;95152.94;;;13.42;54.98
79686;BME280;69153;47.918;11.428;2023-06-04T03:48:11;95139.34;;;13.40;54.84
79686;BME280;69153;47.918;11.428;2023-06-04T03:50:37;95138.59;;;13.39;55.06
79686;BME280;69153;47.918;11.428;2023-06-04T03:53:03;95146.88;;;13.41;54.93
79686;BME280;69153;47.918;11.428;2023-06-04T03:55:31;95143.34;;;13.44;55.32
79686;BME280;69153;47.918;11.428;2023-06-04T03:57:59;95142.06;;;13.49;55.32
79686;BME280;69153;47.918;11.428;2023-06-04T04:00:26;95144.72;;;13.49;55.27
79686;BME280;69153;47.918;11.428;2023-06-04T04:02:51;95146.66;;;13.48;55.69
79686;BME280;69153;47.918;11.428;2023-06-04T04:05:17;95148.25;;;13.46;55.49
79686;BME280;69153;47.918;11.428;2023-06-04T04:07:42;95152.94;;;13.42;55.79
79686;BME280;69153;47.918;11.428;2023-06-04T04:10:08;95151.41;;;13.32;56.15
79686;BME280;69153;47.918;11.428;2023-06-04T04:12:35;95147.16;;;13.34;55.96
79686;BME280;69153;47.918;11.428;2023-06-04T04:15:00;95155.31;;;13.40;56.28
79686;BME280;69153;47.918;11.428;2023-06-04T04:17:26;95157.84;;;13.43;55.86
79686;BME280;69153;47.918;11.428;2023-06-04T04:19:51;95151.97;;;13.48;55.55
79686;BME280;69153;47.918;11.428;2023-06-04T04:22:17;95156.28;;;13.55;55.57
79686;BME280;69153;47.918;11.428;2023-06-04T04:24:43;95156.16;;;13.58;55.90
79686;BME280;69153;47.918;11.428;2023-06-04T04:27:09;95162.09;;;13.63;56.03
79686;BME280;69153;47.918;11.428;2023-06-04T04:29:37;95165.66;;;13.69;56.06
79686;BME280;69153;47.918;11.428;2023-06-04T04:32:03;95168.94;;;13.73;56.28
79686;BME280;69153;47.918;11.428;2023-06-04T04:34:36;95169.81;;;13.70;56.27
79686;BME280;69153;47.918;11.428;2023-06-04T04:37:05;95168.38;;;13.78;56.26
79686;BME280;69153;47.918;11.428;2023-06-04T04:39:34;95173.44;;;13.85;56.17
79686;BME280;69153;47.918;11.428;2023-06-04T04:42:00;95184.72;;;13.89;56.22
79686;BME280;69153;47.918;11.428;2023-06-04T04:44:25;95175.09;;;13.91;55.90
79686;BME280;69153;47.918;11.428;2023-06-04T04:46:51;95173.16;;;13.92;55.90
79686;BME280;69153;47.918;11.428;2023-06-04T04:49:16;95173.03;;;13.95;55.77
79686;BME280;69153;47.918;11.428;2023-06-04T04:51:42;95183.13;;;14.01;55.53
79686;BME280;69153;47.918;11.428;2023-06-04T04:54:07;95185.94;;;14.06;55.50
79686;BME280;69153;47.918;11.428;2023-06-04T04:56:34;95189.97;;;14.11;55.37
79686;BME280;69153;47.918;11.428;2023-06-04T04:59:00;95184.22;;;14.21;55.04
79686;BME280;69153;47.918;11.428;2023-06-04T05:01:26;95183.94;;;14.28;54.78
79686;BME280;69153;47.918;11.428;2023-06-04T05:03:51;95187.22;;;14.32;54.88
79686;BME280;69153;47.918;11.428;2023-06-04T05:06:18;95187.72;;;14.40;54.99
79686;BME280;69153;47.918;11.428;2023-06-04T05:08:43;95189.38;;;14.47;54.80
79686;BME280;69153;47.918;11.428;2023-06-04T05:11:08;95188.94;;;14.57;54.55
79686;BME280;69153;47.918;11.428;2023-06-04T05:13:34;95194.75;;;14.65;54.72
79686;BME280;69153;47.918;11.428;2023-06-04T05:16:00;95194.31;;;14.67;54.56
79686;BME280;69153;47.918;11.428;2023-06-04T05:18:37;95199.66;;;14.76;54.05
79686;BME280;69153;47.918;11.428;2023-06-04T05:21:06;95199.03;;;14.72;53.42
79686;BME280;69153;47.918;11.428;2023-06-04T05:23:32;95200.38;;;14.85;53.48
79686;BME280;69153;47.918;11.428;2023-06-04T05:26:00;95193.88;;;14.95;53.22
79686;BME280;69153;47.918;11.428;2023-06-04T05:28:26;95201.28;;;15.10;53.30
79686;BME280;69153;47.918;11.428;2023-06-04T05:30:52;95202.47;;;15.18;53.56
79686;BME280;69153;47.918;11.428;2023-06-04T05:33:24;95202.16;;;15.34;52.85
79686;BME280;69153;47.918;11.428;2023-06-04T05:35:50;95204.84;;;15.43;53.06
79686;BME280;69153;47.918;11.428;2023-06-04T05:38:20;95207.03;;;15.54;52.59
79686;BME280;69153;47.918;11.428;2023-06-04T05:40:46;95209.88;;;15.59;52.42
79686;BME280;69153;47.918;11.428;2023-06-04T05:43:12;95211.19;;;15.73;52.09
79686;BME280;69153;47.918;11.428;2023-06-04T05:45:38;95218.16;;;15.80;51.63
79686;BME280;69153;47.918;11.428;2023-06-04T05:48:04;95216.06;;;15.84;51.94
79686;BME280;69153;47.918;11.428;2023-06-04T05:50:30;95212.47;;;15.87;51.64
79686;BME280;69153;47.918;11.428;2023-06-04T05:52:56;95208.13;;;15.98;50.98
79686;BME280;69153;47.918;11.428;2023-06-04T05:55:22;95219.50;;;16.17;50.36
79686;BME280;69153;47.918;11.428;2023-06-04T05:57:48;95218.28;;;16.27;50.49
79686;BME280;69153;47.918;11.428;2023-06-04T06:00:14;95219.72;;;16.37;49.74
79686;BME280;69153;47.918;11.428;2023-06-04T06:02:40;95222.19;;;16.50;49.19
79686;BME280;69153;47.918;11.428;2023-06-04T06:05:06;95219.47;;;16.59;48.91
79686;BME280;69153;47.918;11.428;2023-06-04T06:07:34;95221.66;;;16.70;48.85
79686;BME280;69153;47.918;11.428;2023-06-04T06:10:00;95221.59;;;16.79;48.59
79686;BME280;69153;47.918;11.428;2023-06-04T06:12:26;95222.88;;;16.69;48.84
79686;BME280;69153;47.918;11.428;2023-06-04T06:14:51;95225.53;;;16.69;48.71
79686;BME280;69153;47.918;11.428;2023-06-04T06:17:17;95229.19;;;16.81;48.20
79686;BME280;69153;47.918;11.428;2023-06-04T06:19:42;95218.25;;;16.93;48.45
79686;BME280;69153;47.918;11.428;2023-06-04T06:22:08;95223.75;;;16.90;48.80
79686;BME280;69153;47.918;11.428;2023-06-04T06:24:33;95232.50;;;16.99;48.58
79686;BME280;69153;47.918;11.428;2023-06-04T06:26:59;95234.72;;;17.15;48.35
79686;BME280;69153;47.918;11.428;2023-06-04T06:29:24;95229.13;;;17.28;48.29
79686;BME280;69153;47.918;11.428;2023-06-04T06:31:50;95230.06;;;17.40;48.45
79686;BME280;69153;47.918;11.428;2023-06-04T06:34:16;95235.38;;;17.49;49.42
79686;BME280;69153;47.918;11.428;2023-06-04T06:36:41;95226.78;;;17.60;49.89
79686;BME280;69153;47.918;11.428;2023-06-04T06:39:07;95236.94;;;17.56;50.19
79686;BME280;69153;47.918;11.428;2023-06-04T06:41:32;95228.13;;;17.64;50.99
79686;BME280;69153;47.918;11.428;2023-06-04T06:43:58;95231.16;;;17.72;50.91
79686;BME280;69153;47.918;11.428;2023-06-04T06:46:23;95231.06;;;17.81;50.25
79686;BME280;69153;47.918;11.428;2023-06-04T06:48:49;95230.78;;;17.94;49.39
79686;BME280;69153;47.918;11.428;2023-06-04T06:51:14;95236.31;;;18.05;50.38
79686;BME280;69153;47.918;11.428;2023-06-04T06:53:40;95226.06;;;18.18;49.83
79686;BME280;69153;47.918;11.428;2023-06-04T06:56:06;95227.63;;;18.25;50.65
79686;BME280;69153;47.918;11.428;2023-06-04T06:58:32;95229.16;;;18.31;50.42
79686;BME280;69153;47.918;11.428;2023-06-04T07:00:57;95233.25;;;18.27;51.55
79686;BME280;69153;47.918;11.428;2023-06-04T07:03:23;95231.91;;;18.16;51.02
79686;BME280;69153;47.918;11.428;2023-06-04T07:05:48;95227.72;;;18.30;50.67
79686;BME280;69153;47.918;11.428;2023-06-04T07:08:14;95223.16;;;18.36;51.46
79686;BME280;69153;47.918;11.428;2023-06-04T07:10:39;95219.91;;;18.47;50.82
79686;BME280;69153;47.918;11.428;2023-06-04T07:13:05;95219.69;;;18.65;50.28
79686;BME280;69153;47.918;11.428;2023-06-04T07:15:30;95214.19;;;18.74;49.53
79686;BME280;69153;47.918;11.428;2023-06-04T07:17:56;95212.78;;;18.79;50.72
79686;BME280;69153;47.918;11.428;2023-06-04T07:20:21;95207.75;;;18.86;49.93
79686;BME280;69153;47.918;11.428;2023-06-04T07:22:47;95215.63;;;18.90;49.50
79686;BME280;69153;47.918;11.428;2023-06-04T07:25:13;95218.63;;;18.77;50.44
79686;BME280;69153;47.918;11.428;2023-06-04T07:27:38;95217.97;;;18.82;49.44
79686;BME280;69153;47.918;11.428;2023-06-04T07:30:06;95214.97;;;18.95;49.30
79686;BME280;69153;47.918;11.428;2023-06-04T07:32:31;95215.13;;;19.12;49.74
79686;BME280;69153;47.918;11.428;2023-06-04T07:34:57;95223.25;;;19.17;50.27
79686;BME280;69153;47.918;11.428;2023-06-04T07:37:22;95219.28;;;19.33;50.22
79686;BME280;69153;47.918;11.428;2023-06-04T07:39:47;95220.44;;;19.26;49.38
79686;BME280;69153;47.918;11.428;2023-06-04T07:42:13;95224.22;;;19.40;48.61
79686;BME280;69153;47.918;11.428;2023-06-04T07:44:39;95215.63;;;19.56;48.07
79686;BME280;69153;47.918;11.428;2023-06-04T07:47:04;95218.31;;;19.56;48.97
79686;BME280;69153;47.918;11.428;2023-06-04T07:49:30;95219.06;;;19.37;49.12
79686;BME280;69153;47.918;11.428;2023-06-04T07:51:55;95214.22;;;19.41;47.49
79686;BME280;69153;47.918;11.428;2023-06-04T07:54:21;95213.16;;;19.53;49.05
79686;BME280;69153;47.918;11.428;2023-06-04T07:56:47;95209.69;;;19.73;48.38
79686;BME280;69153;47.918;11.428;2023-06-04T07:59:12;95212.63;;;19.75;49.06
79686;BME280;69153;47.918;11.428;2023-06-04T08:01:37;95205.88;;;19.85;47.33
79686;BME280;69153;47.918;11.428;2023-06-04T08:04:03;95212.78;;;19.91;46.91
79686;BME280;69153;47.918;11.428;2023-06-04T08:06:28;95204.97;;;19.93;46.64
79686;BME280;69153;47.918;11.428;2023-06-04T08:08:54;95212.47;;;20.15;46.26
79686;BME280;69153;47.918;11.428;2023-06-04T08:11:19;95213.66;;;20.09;46.99
79686;BME280;69153;47.918;11.428;2023-06-04T08:13:48;95212.69;;;20.12;46.72
79686;BME280;69153;47.918;11.428;2023-06-04T08:16:13;95212.59;;;20.01;46.82
79686;BME280;69153;47.918;11.428;2023-06-04T08:18:40;95220.25;;;20.13;46.18
79686;BME280;69153;47.918;11.428;2023-06-04T08:21:09;95224.88;;;20.07;43.84
79686;BME280;69153;47.918;11.428;2023-06-04T08:23:35;95222.56;;;19.94;44.69
79686;BME280;69153;47.918;11.428;2023-06-04T08:26:01;95218.31;;;20.14;45.45
79686;BME280;69153;47.918;11.428;2023-06-04T08:28:26;95218.63;;;20.21;45.67
79686;BME280;69153;47.918;11.428;2023-06-04T08:30:52;95215.13;;;20.41;44.66
79686;BME280;69153;47.918;11.428;2023-06-04T08:33:18;95221.28;;;20.53;44.48
79686;BME280;69153;47.918;11.428;2023-06-04T08:35:43;95232.16;;;20.64;44.87
79686;BME280;69153;47.918;11.428;2023-06-04T08:38:08;95225.38;;;20.80;43.34
79686;BME280;69153;47.918;11.428;2023-06-04T08:40:34;95223.03;;;21.04;41.66
79686;BME280;69153;47.918;11.428;2023-06-04T08:43:04;95230.63;;;21.05;42.24
79686;BME280;69153;47.918;11.428;2023-06-04T08:45:33;95228.03;;;21.22;40.71
79686;BME280;69153;47.918;11.428;2023-06-04T08:48:07;95227.81;;;21.26;40.81
79686;BME280;69153;47.918;11.428;2023-06-04T08:50:35;95221.13;;;21.16;39.72
79686;BME280;69153;47.918;11.428;2023-06-04T08:53:02;95227.78;;;21.20;38.86
79686;BME280;69153;47.918;11.428;2023-06-04T08:55:28;95218.66;;;21.12;39.74
79686;BME280;69153;47.918;11.428;2023-06-04T08:57:53;95231.94;;;21.21;39.06
79686;BME280;69153;47.918;11.428;2023-06-04T09:00:19;95225.41;;;21.39;38.51
79686;BME280;69153;47.918;11.428;2023-06-04T09:02:46;95230.97;;;21.24;38.05
79686;BME280;69153;47.918;11.428;2023-06-04T09:05:19;95223.31;;;21.17;37.49
79686;BME280;69153;47.918;11.428;2023-06-04T09:07:46;95225.09;;;21.31;39.16
79686;BME280;69153;47.918;11.428;2023-06-04T09:10:16;95231.78;;;21.47;38.81
79686;BME280;69153;47.918;11.428;2023-06-04T09:12:46;95227.19;;;21.75;37.56
79686;BME280;69153;47.918;11.428;2023-06-04T09:15:12;95221.06;;;21.81;37.34
79686;BME280;69153;47.918;11.428;2023-06-04T09:17:38;95229.88;;;21.75;38.04
79686;BME280;69153;47.918;11.428;2023-06-04T09:20:04;95226.25;;;22.06;37.05
79686;BME280;69153;47.918;11.428;2023-06-04T09:22:35;95220.59;;;22.32;35.24
79686;BME280;69153;47.918;11.428;2023-06-04T09:25:04;95223.50;;;22.57;36.25
79686;BME280;69153;47.918;11.428;2023-06-04T09:27:39;95224.22;;;22.63;35.79
79686;BME280;69153;47.918;11.428;2023-06-04T09:30:08;95212.94;;;22.48;35.00
79686;BME280;69153;47.918;11.428;2023-06-04T09:32:34;95219.34;;;22.56;33.94
79686;BME280;69153;47.918;11.428;2023-06-04T09:37:37;95220.81;;;22.40;33.93
79686;BME280;69153;47.918;11.428;2023-06-04T09:40:03;95217.84;;;22.71;34.13
79686;BME280;69153;47.918;11.428;2023-06-04T09:42:44;95221.56;;;22.40;34.60
79686;BME280;69153;47.918;11.428;2023-06-04T09:45:11;95214.41;;;22.60;34.35
79686;BME280;69153;47.918;11.428;2023-06-04T09:47:42;95216.13;;;22.79;33.98
79686;BME280;69153;47.918;11.428;2023-06-04T09:50:08;95215.59;;;22.75;34.20
79686;BME280;69153;47.918;11.428;2023-06-04T09:52:34;95222.00;;;22.61;33.88
79686;BME280;69153;47.918;11.428;2023-06-04T09:54:59;95210.16;;;22.92;35.17
79686;BME280;69153;47.918;11.428;2023-06-04T09:57:29;95208.84;;;23.21;34.88
79686;BME280;69153;47.918;11.428;2023-06-04T09:59:56;95210.16;;;22.92;32.84
79686;BME280;69153;47.918;11.428;2023-06-04T10:02:22;95211.31;;;23.13;33.95
79686;BME280;69153;47.918;11.428;2023-06-04T10:04:54;95206.13;;;23.21;33.78
79686;BME280;69153;47.918;11.428;2023-06-04T10:07:24;95210.91;;;23.50;33.73
79686;BME280;69153;47.918;11.428;2023-06-04T10:09:51;95208.38;;;23.64;33.66
79686;BME280;69153;47.918;11.428;2023-06-04T10:12:28;95221.38;;;23.71;32.75
79686;BME280;69153;47.918;11.428;2023-06-04T10:14:57;95209.53;;;23.74;32.31
79686;BME280;69153;47.918;11.428;2023-06-04T10:17:25;95215.97;;;23.71;32.77
79686;BME280;69153;47.918;11.428;2023-06-04T10:19:53;95224.81;;;23.71;31.51
79686;BME280;69153;47.918;11.428;2023-06-04T10:22:20;95221.09;;;23.74;31.64
79686;BME280;69153;47.918;11.428;2023-06-04T10:24:46;95219.81;;;23.81;32.83
79686;BME280;69153;47.918;11.428;2023-06-04T10:27:12;95223.34;;;23.70;32.03
79686;BME280;69153;47.918;11.428;2023-06-04T10:29:39;95215.41;;;23.78;31.78
79686;BME280;69153;47.918;11.428;2023-06-04T10:32:05;95217.41;;;23.25;31.49
79686;BME280;69153;47.918;11.428;2023-06-04T10:34:32;95212.41;;;23.40;32.46
79686;BME280;69153;47.918;11.428;2023-06-04T10:36:58;95213.09;;;23.93;32.91
79686;BME280;69153;47.918;11.428;2023-06-04T10:39:28;95217.81;;;24.23;32.32
79686;BME280;69153;47.918;11.428;2023-06-04T10:42:12;95214.97;;;24.39;31.31
79686;BME280;69153;47.918;11.428;2023-06-04T10:44:51;95209.97;;;24.43;31.01
79686;BME280;69153;47.918;11.428;2023-06-04T10:49:54;95208.34;;;24.35;31.15
79686;BME280;69153;47.918;11.428;2023-06-04T10:52:21;95200.50;;;24.55;31.19
79686;BME280;69153;47.918;11.428;2023-06-04T10:54:47;95210.50;;;24.66;30.59
79686;BME280;69153;47.918;11.428;2023-06-04T10:57:18;95208.44;;;24.53;30.65
79686;BME280;69153;47.918;11.428;2023-06-04T10:59:58;95214.66;;;24.43;29.64
79686;BME280;69153;47.918;11.428;2023-06-04T11:02:24;95208.09;;;24.63;30.01
79686;BME280;69153;47.918;11.428;2023-06-04T11:05:04;95203.31;;;24.44;29.69
79686;BME280;69153;47.918;11.428;2023-06-04T11:07:47;95203.69;;;24.30;29.19
79686;BME280;69153;47.918;11.428;2023-06-04T11:10:15;95202.78;;;24.21;29.97
79686;BME280;69153;47.918;11.428;2023-06-04T11:12:45;95216.44;;;24.65;30.48
79686;BME280;69153;47.918;11.428;2023-06-04T11:15:11;95207.22;;;24.73;29.15
79686;BME280;69153;47.918;11.428;2023-06-04T11:17:37;95202.47;;;24.31;29.39
79686;BME280;69153;47.918;11.428;2023-06-04T11:20:02;95206.03;;;24.44;29.61
79686;BME280;69153;47.918;11.428;2023-06-04T11:22:32;95208.97;;;24.46;29.20
79686;BME280;69153;47.918;11.428;2023-06-04T11:24:58;95201.94;;;24.38;28.72
79686;BME280;69153;47.918;11.428;2023-06-04T11:27:27;95202.44;;;23.65;29.21
79686;BME280;69153;47.918;11.428;2023-06-04T11:29:52;95196.13;;;23.57;29.60
79686;BME280;69153;47.918;11.428;2023-06-04T11:32:22;95201.16;;;23.31;30.34
79686;BME280;69153;47.918;11.428;2023-06-04T11:34:48;95197.63;;;23.52;30.12
79686;BME280;69153;47.918;11.428;2023-06-04T11:37:13;95193.59;;;24.00;32.00
79686;BME280;69153;47.918;11.428;2023-06-04T11:39:38;95198.25;;;24.35;29.64
79686;BME280;69153;47.918;11.428;2023-06-04T11:42:06;95187.31;;;24.16;29.38
79686;BME280;69153;47.918;11.428;2023-06-04T11:44:33;95189.00;;;24.19;28.89
79686;BME280;69153;47.918;11.428;2023-06-04T11:46:58;95190.47;;;24.26;30.20
79686;BME280;69153;47.918;11.428;2023-06-04T11:49:24;95195.16;;;24.50;30.66
79686;BME280;69153;47.918;11.428;2023-06-04T11:51:52;95196.44;;;24.68;29.41
79686;BME280;69153;47.918;11.428;2023-06-04T11:54:20;95184.56;;;24.95;29.48
79686;BME280;69153;47.918;11.428;2023-06-04T11:56:49;95183.34;;;24.96;28.44
79686;BME280;69153;47.918;11.428;2023-06-04T11:59:18;95181.94;;;24.65;27.74
79686;BME280;69153;47.918;11.428;2023-06-04T12:01:46;95176.84;;;24.80;29.84
79686;BME280;69153;47.918;11.428;2023-06-04T12:04:16;95182.16;;;24.91;29.18
79686;BME280;69153;47.918;11.428;2023-06-04T12:06:55;95175.38;;;25.04;28.33
79686;BME280;69153;47.918;11.428;2023-06-04T12:09:28;95175.75;;;25.13;29.36
79686;BME280;69153;47.918;11.428;2023-06-04T12:14:25;95182.44;;;24.88;30.21
79686;BME280;69153;47.918;11.428;2023-06-04T12:16:59;95184.13;;;24.91;30.48
79686;BME280;69153;47.918;11.428;2023-06-04T12:19:26;95182.16;;;24.91;30.36
79686;BME280;69153;47.918;11.428;2023-06-04T12:22:03;95174.66;;;24.79;29.56
79686;BME280;69153;47.918;11.428;2023-06-04T12:24:31;95169.66;;;24.64;27.92
79686;BME280;69153;47.918;11.428;2023-06-04T12:27:05;95171.63;;;24.64;29.45
79686;BME280;69153;47.918;11.428;2023-06-04T12:29:32;95172.56;;;24.42;30.05
79686;BME280;69153;47.918;11.428;2023-06-04T12:32:05;95165.53;;;24.33;30.87
79686;BME280;69153;47.918;11.428;2023-06-04T12:34:36;95177.03;;;24.39;29.97
79686;BME280;69153;47.918;11.428;2023-06-04T12:37:02;95174.66;;;24.30;30.00
79686;BME280;69153;47.918;11.428;2023-06-04T12:39:35;95170.06;;;24.19;30.74
79686;BME280;69153;47.918;11.428;2023-06-04T12:42:07;95176.84;;;24.32;31.14
79686;BME280;69153;47.918;11.428;2023-06-04T12:44:35;95170.94;;;24.33;29.29
79686;BME280;69153;47.918;11.428;2023-06-04T12:47:02;95169.31;;;24.49;28.38
79686;BME280;69153;47.918;11.428;2023-06-04T12:49:27;95168.44;;;24.60;28.44
79686;BME280;69153;47.918;11.428;2023-06-04T12:51:53;95163.09;;;24.78;28.79
79686;BME280;69153;47.918;11.428;2023-06-04T12:54:18;95161.38;;;25.00;29.04
79686;BME280;69153;47.918;11.428;2023-06-04T12:56:44;95160.28;;;24.84;28.66